createdAt,value
2022-12-14T00:01:25.345Z,8.90
2022-12-14T00:03:53.221Z,11.27
2022-12-14T00:06:30.827Z,10.48
2022-12-14T00:09:00.968Z,12.43
2022-12-14T00:11:28.687Z,10.20
2022-12-14T00:14:00.954Z,16.75
2022-12-14T00:16:30.803Z,10.43
2022-12-14T00:18:59.195Z,11.30
2022-12-14T00:21:26.244Z,10.55
2022-12-14T00:23:53.941Z,7.55
2022-12-14T00:26:23.107Z,10.10
2022-12-14T00:28:51.274Z,9.38
2022-12-14T00:31:18.437Z,10.63
2022-12-14T00:33:45.399Z,8.15
2022-12-14T00:36:13.790Z,10.43
2022-12-14T00:38:40.659Z,10.15
2022-12-14T00:41:08.091Z,9.30
2022-12-14T00:43:37.839Z,10.13
2022-12-14T00:46:05.446Z,11.98
2022-12-14T00:48:32.470Z,8.60
2022-12-14T00:50:59.670Z,10.63
2022-12-14T00:53:26.574Z,6.57
2022-12-14T00:55:53.669Z,9.80
2022-12-14T00:58:22.825Z,15.60
2022-12-14T01:00:59.994Z,6.78
2022-12-14T01:03:27.648Z,8.55
2022-12-14T01:05:54.522Z,8.35
2022-12-14T01:08:21.426Z,10.27
2022-12-14T01:10:50.025Z,8.07
2022-12-14T01:13:16.683Z,10.48
2022-12-14T01:15:43.329Z,8.90
2022-12-14T01:18:09.902Z,10.05
2022-12-14T01:20:36.475Z,8.70
2022-12-14T01:23:03.093Z,11.85
2022-12-14T01:25:29.659Z,12.85
2022-12-14T01:27:56.710Z,10.50
2022-12-14T01:30:23.331Z,14.95
2022-12-14T01:32:49.921Z,11.18
2022-12-14T01:35:19.449Z,13.05
2022-12-14T01:37:46.053Z,15.38
2022-12-14T01:40:16.909Z,15.20
2022-12-14T01:42:43.580Z,11.32
2022-12-14T01:45:19.377Z,11.68
2022-12-14T01:47:54.189Z,11.48
2022-12-14T01:50:32.152Z,8.13
2022-12-14T01:53:06.073Z,12.00
2022-12-14T01:55:41.972Z,9.38
2022-12-14T01:58:16.153Z,10.07
2022-12-14T02:00:43.974Z,14.48
2022-12-14T02:03:20.398Z,13.35
2022-12-14T02:05:50.628Z,9.95
2022-12-14T02:08:18.605Z,9.50
2022-12-14T02:10:46.408Z,10.38
2022-12-14T02:13:29.607Z,8.93
2022-12-14T02:15:56.500Z,10.00
2022-12-14T02:18:29.265Z,11.88
2022-12-14T02:21:17.781Z,10.40
2022-12-14T02:24:15.251Z,9.00
2022-12-14T02:27:16.318Z,6.88
2022-12-14T02:29:56.606Z,10.65
2022-12-14T02:32:58.450Z,8.50
2022-12-14T02:35:51.041Z,8.32
2022-12-14T02:38:32.791Z,12.68
2022-12-14T02:41:18.193Z,10.68
2022-12-14T02:43:52.134Z,13.65
2022-12-14T02:46:18.690Z,10.90
2022-12-14T02:48:51.339Z,13.23
2022-12-14T02:51:36.193Z,11.13
2022-12-14T02:54:17.773Z,12.18
2022-12-14T02:56:51.380Z,11.02
2022-12-14T02:59:19.364Z,9.10
2022-12-14T03:01:50.358Z,12.35
2022-12-14T03:04:18.803Z,9.55
2022-12-14T03:06:57.857Z,12.10
2022-12-14T03:09:28.185Z,8.57
2022-12-14T03:11:57.478Z,9.70
2022-12-14T03:14:32.170Z,10.10
2022-12-14T03:17:25.779Z,7.82
2022-12-14T03:20:09.935Z,11.45
2022-12-14T03:22:45.585Z,9.98
2022-12-14T03:25:35.300Z,7.38
2022-12-14T03:28:13.158Z,9.95
2022-12-14T03:30:59.994Z,10.80
2022-12-14T03:33:30.093Z,8.80
2022-12-14T03:36:03.683Z,10.18
2022-12-14T03:38:42.501Z,12.40
2022-12-14T03:41:27.058Z,8.32
2022-12-14T03:44:08.181Z,12.35
2022-12-14T03:46:50.010Z,9.97
2022-12-14T03:49:19.405Z,12.43
2022-12-14T03:51:58.016Z,9.45
2022-12-14T03:54:45.445Z,9.93
2022-12-14T03:57:38.399Z,13.10
2022-12-14T04:00:09.264Z,9.80
2022-12-14T04:03:00.439Z,6.68
2022-12-14T04:05:32.860Z,11.10
2022-12-14T04:08:14.991Z,14.95
2022-12-14T04:11:07.580Z,10.48
2022-12-14T04:13:59.623Z,11.32
2022-12-14T04:16:51.015Z,11.68
2022-12-14T04:19:31.735Z,10.18
2022-12-14T04:22:15.924Z,7.03
2022-12-14T04:25:10.753Z,8.45
2022-12-14T04:27:52.045Z,12.85
2022-12-14T04:30:18.962Z,9.90
2022-12-14T04:33:22.275Z,13.15
2022-12-14T04:35:51.072Z,10.32
2022-12-14T04:38:29.079Z,13.32
2022-12-14T04:40:59.449Z,11.77
2022-12-14T04:43:31.964Z,9.13
2022-12-14T04:46:06.552Z,10.40
2022-12-14T04:48:44.567Z,12.93
2022-12-14T04:51:17.701Z,10.65
2022-12-14T04:53:50.042Z,7.70
2022-12-14T04:56:19.523Z,12.82
2022-12-14T04:58:46.403Z,11.27
2022-12-14T05:01:18.742Z,8.23
2022-12-14T05:04:16.543Z,14.25
2022-12-14T05:06:52.913Z,7.82
2022-12-14T05:09:28.708Z,11.98
2022-12-14T05:12:12.443Z,12.63
2022-12-14T05:15:05.011Z,12.57
2022-12-14T05:17:35.738Z,8.32
2022-12-14T05:20:02.322Z,9.48
2022-12-14T05:22:28.919Z,12.75
2022-12-14T05:24:55.556Z,9.48
2022-12-14T05:27:22.111Z,15.90
2022-12-14T05:29:48.706Z,13.38
2022-12-14T05:32:15.423Z,9.80
2022-12-14T05:34:41.971Z,12.98
2022-12-14T05:37:13.022Z,10.52
2022-12-14T05:39:42.957Z,12.38
2022-12-14T05:42:09.543Z,12.35
2022-12-14T05:44:36.117Z,12.75
2022-12-14T05:47:02.690Z,9.25
2022-12-14T05:49:29.304Z,16.10
2022-12-14T05:51:55.851Z,13.18
2022-12-14T05:54:22.434Z,14.65
2022-12-14T05:56:49.039Z,12.30
2022-12-14T05:59:16.908Z,15.48
2022-12-14T06:01:45.450Z,16.33
2022-12-14T06:04:17.258Z,13.52
2022-12-14T06:06:44.077Z,10.95
2022-12-14T06:09:13.404Z,10.90
2022-12-14T06:11:41.301Z,10.18
2022-12-14T06:14:09.129Z,11.23
2022-12-14T06:16:36.917Z,12.50
2022-12-14T06:19:04.687Z,12.35
2022-12-14T06:21:34.404Z,12.88
2022-12-14T06:24:02.610Z,10.27
2022-12-14T06:26:31.337Z,10.57
2022-12-14T06:28:58.441Z,13.35
2022-12-14T06:31:28.532Z,9.68
2022-12-14T06:33:59.679Z,13.32
2022-12-14T06:36:32.190Z,18.40
2022-12-14T06:39:02.939Z,12.35
2022-12-14T06:41:29.851Z,16.75
2022-12-14T06:43:57.200Z,17.67
2022-12-14T06:46:25.295Z,13.13
2022-12-14T06:48:54.081Z,13.88
2022-12-14T06:51:22.134Z,14.57
2022-12-14T06:53:56.535Z,14.00
2022-12-14T06:56:25.887Z,10.85
2022-12-14T06:58:54.227Z,17.63
2022-12-14T07:01:23.004Z,11.57
2022-12-14T07:03:57.992Z,13.02
2022-12-14T07:06:27.113Z,13.27
2022-12-14T07:08:55.605Z,11.25
2022-12-14T07:11:23.033Z,14.57
2022-12-14T07:13:49.660Z,12.80
2022-12-14T07:16:25.876Z,11.57
2022-12-14T07:18:54.466Z,11.10
2022-12-14T07:21:22.595Z,21.67
2022-12-14T07:23:51.745Z,12.57
2022-12-14T07:26:28.093Z,11.10
2022-12-14T07:28:55.212Z,13.55
2022-12-14T07:31:23.993Z,10.80
2022-12-14T07:33:58.736Z,15.18
2022-12-14T07:36:26.940Z,10.57
2022-12-14T07:38:55.566Z,11.18
2022-12-14T07:41:28.029Z,12.65
2022-12-14T07:43:56.100Z,9.88
2022-12-14T07:46:25.838Z,14.95
2022-12-14T07:48:54.938Z,14.13
2022-12-14T07:51:24.519Z,12.45
2022-12-14T07:53:51.581Z,13.35
2022-12-14T07:56:21.625Z,17.42
2022-12-14T07:58:48.767Z,16.25
2022-12-14T08:01:18.193Z,14.27
2022-12-14T08:03:57.090Z,13.75
2022-12-14T08:06:26.753Z,11.00
2022-12-14T08:08:54.481Z,14.68
2022-12-14T08:11:24.952Z,17.90
2022-12-14T08:13:55.892Z,14.10
2022-12-14T08:16:22.805Z,16.67
2022-12-14T08:18:49.980Z,16.17
2022-12-14T08:21:20.838Z,14.52
2022-12-14T08:23:48.117Z,14.80
2022-12-14T08:26:15.274Z,14.10
2022-12-14T08:28:41.994Z,17.25
2022-12-14T08:31:13.763Z,11.65
2022-12-14T08:36:10.180Z,11.70
2022-12-14T08:38:37.560Z,9.57
2022-12-14T08:41:12.603Z,13.40
2022-12-14T08:43:40.369Z,13.82
2022-12-14T08:46:09.478Z,12.68
2022-12-14T08:48:36.247Z,13.13
2022-12-14T08:51:08.137Z,13.18
2022-12-14T08:56:06.265Z,14.38
2022-12-14T08:58:33.735Z,12.65
2022-12-14T09:01:05.925Z,15.73
2022-12-14T09:03:33.350Z,14.88
2022-12-14T09:06:06.073Z,12.52
2022-12-14T09:08:32.942Z,15.00
2022-12-14T09:11:00.671Z,13.45
2022-12-14T09:13:28.207Z,15.20
2022-12-14T09:16:21.894Z,13.65
2022-12-14T09:18:49.144Z,12.82
2022-12-14T09:21:16.212Z,20.55
2022-12-14T09:23:44.169Z,15.70
2022-12-14T09:26:17.753Z,12.98
2022-12-14T09:28:50.281Z,16.10
2022-12-14T09:31:19.327Z,12.27
2022-12-14T09:33:46.249Z,14.50
2022-12-14T09:36:18.330Z,18.80
2022-12-14T09:38:50.996Z,12.32
2022-12-14T09:41:36.505Z,13.25
2022-12-14T09:44:19.540Z,15.95
2022-12-14T09:46:58.117Z,18.05
2022-12-14T09:49:37.921Z,19.27
2022-12-14T09:52:07.306Z,12.35
2022-12-14T09:54:37.963Z,12.73
2022-12-14T09:57:11.689Z,12.20
2022-12-14T09:59:38.370Z,16.30
2022-12-14T10:02:31.553Z,16.67
2022-12-14T10:05:27.775Z,19.25
2022-12-14T10:08:15.609Z,13.65
2022-12-14T10:11:07.324Z,15.57
2022-12-14T10:14:06.837Z,15.85
2022-12-14T10:16:41.089Z,15.10
2022-12-14T10:19:19.710Z,12.85
2022-12-14T10:21:59.252Z,16.15
2022-12-14T10:24:33.851Z,21.75
2022-12-14T10:27:01.689Z,13.95
2022-12-14T10:29:46.585Z,17.40
2022-12-14T10:32:20.232Z,12.43
2022-12-14T10:34:47.351Z,16.05
2022-12-14T10:37:25.580Z,17.40
2022-12-14T10:40:17.491Z,17.45
2022-12-14T10:42:55.846Z,18.70
2022-12-14T10:45:42.096Z,12.30
2022-12-14T10:48:21.342Z,14.68
2022-12-14T10:51:13.021Z,11.20
2022-12-14T10:53:55.443Z,13.40
2022-12-14T10:56:24.987Z,16.67
2022-12-14T10:59:16.567Z,12.55
2022-12-14T11:01:45.192Z,14.23
2022-12-14T11:04:31.489Z,15.77
2022-12-14T11:07:01.183Z,15.50
2022-12-14T11:09:28.019Z,18.10
2022-12-14T11:11:58.607Z,19.27
2022-12-14T11:14:26.170Z,14.55
2022-12-14T11:16:53.143Z,15.13
2022-12-14T11:19:23.412Z,16.70
2022-12-14T11:22:03.993Z,14.02
2022-12-14T11:24:30.581Z,21.60
2022-12-14T11:27:03.433Z,16.27
2022-12-14T11:29:33.140Z,14.82
2022-12-14T11:32:00.668Z,17.40
2022-12-14T11:34:41.284Z,15.25
2022-12-14T11:37:34.313Z,18.27
2022-12-14T11:40:06.110Z,11.60
2022-12-14T11:42:33.812Z,14.55
2022-12-14T11:45:27.736Z,15.63
2022-12-14T11:48:14.168Z,16.55
2022-12-14T11:50:42.322Z,16.88
2022-12-14T11:53:14.396Z,17.70
2022-12-14T11:55:47.800Z,14.70
2022-12-14T11:58:20.221Z,19.70
2022-12-14T12:00:55.379Z,17.73
2022-12-14T12:03:26.278Z,15.18
2022-12-14T12:05:54.731Z,13.30
2022-12-14T12:08:31.208Z,13.75
2022-12-14T12:11:02.688Z,14.60
2022-12-14T12:13:35.404Z,17.10
2022-12-14T12:16:13.523Z,15.90
2022-12-14T12:19:12.038Z,19.38
2022-12-14T12:21:44.801Z,16.67
2022-12-14T12:24:23.376Z,18.23
2022-12-14T12:27:11.723Z,19.77
2022-12-14T12:29:46.744Z,14.73
2022-12-14T12:32:14.551Z,20.58
2022-12-14T12:34:41.062Z,17.33
2022-12-14T12:37:29.490Z,16.88
2022-12-14T12:40:02.528Z,16.52
2022-12-14T12:42:41.983Z,15.70
2022-12-14T12:45:29.228Z,15.82
2022-12-14T12:48:10.501Z,15.55
2022-12-14T12:50:42.391Z,20.10
2022-12-14T12:53:17.092Z,17.10
2022-12-14T12:55:53.795Z,19.42
2022-12-14T12:58:29.234Z,13.73
2022-12-14T13:01:02.602Z,16.25
2022-12-14T13:03:45.117Z,12.05
2022-12-14T13:06:40.706Z,15.80
2022-12-14T13:09:27.650Z,15.60
2022-12-14T13:11:55.468Z,14.68
2022-12-14T13:14:50.043Z,15.95
2022-12-14T13:17:44.271Z,14.93
2022-12-14T13:20:30.066Z,14.25
2022-12-14T13:22:59.515Z,12.38
2022-12-14T13:25:39.353Z,17.50
2022-12-14T13:28:05.970Z,15.52
2022-12-14T13:30:41.449Z,10.98
2022-12-14T13:33:17.202Z,17.08
2022-12-14T13:35:54.165Z,11.77
2022-12-14T13:38:58.880Z,12.93
2022-12-14T13:42:21.206Z,11.95
2022-12-14T13:44:53.789Z,14.35
2022-12-14T13:47:24.603Z,14.18
2022-12-14T13:50:35.878Z,17.63
2022-12-14T13:53:13.024Z,13.10
2022-12-14T13:56:00.095Z,14.40
2022-12-14T13:58:45.189Z,13.65
2022-12-14T14:01:36.265Z,16.23
2022-12-14T14:04:29.800Z,17.73
2022-12-14T14:07:22.451Z,16.27
2022-12-14T14:10:02.105Z,15.68
2022-12-14T14:12:34.603Z,16.48
2022-12-14T14:15:35.942Z,15.57
2022-12-14T14:18:13.801Z,15.90
2022-12-14T14:20:53.804Z,13.32
2022-12-14T14:23:23.615Z,16.00
2022-12-14T14:26:10.118Z,17.80
2022-12-14T14:28:38.162Z,23.80
2022-12-14T14:31:05.418Z,19.05
2022-12-14T14:33:45.435Z,14.60
2022-12-14T14:36:33.709Z,19.85
2022-12-14T14:39:02.013Z,14.63
2022-12-14T14:41:36.141Z,13.07
2022-12-14T14:44:06.797Z,15.27
2022-12-14T14:46:40.920Z,15.57
2022-12-14T14:49:23.247Z,10.82
2022-12-14T14:51:50.199Z,11.05
2022-12-14T14:54:44.814Z,10.65
2022-12-14T14:57:35.475Z,11.73
2022-12-14T15:00:04.555Z,12.90
2022-12-14T15:02:41.285Z,11.07
2022-12-14T15:08:17.939Z,23.20
2022-12-14T15:10:46.650Z,30.33
2022-12-14T15:13:26.922Z,21.08
2022-12-14T15:15:56.566Z,28.42
2022-12-14T15:18:31.594Z,24.52
2022-12-14T15:21:13.597Z,18.48
2022-12-14T15:26:28.761Z,14.55
2022-12-14T15:28:58.199Z,20.63
2022-12-14T15:31:33.295Z,18.75
2022-12-14T15:34:01.283Z,13.98
2022-12-14T15:36:34.050Z,17.13
2022-12-14T15:39:00.701Z,14.23
2022-12-14T15:41:32.307Z,14.15
2022-12-14T15:44:00.412Z,21.70
2022-12-14T15:46:38.552Z,13.07
2022-12-14T15:49:10.638Z,18.38
2022-12-14T15:51:41.997Z,13.07
2022-12-14T15:54:17.481Z,14.57
2022-12-14T15:56:46.768Z,14.70
2022-12-14T15:59:22.365Z,15.77
2022-12-14T16:01:57.914Z,19.27
2022-12-14T16:04:29.407Z,16.17
2022-12-14T16:07:09.121Z,17.20
2022-12-14T16:09:50.294Z,20.05
2022-12-14T16:12:20.559Z,20.52
2022-12-14T16:14:57.200Z,16.98
2022-12-14T16:17:32.281Z,18.27
2022-12-14T16:20:02.486Z,16.83
2022-12-14T16:22:31.911Z,16.50
2022-12-14T16:25:07.783Z,14.02
2022-12-14T16:27:39.128Z,16.70
2022-12-14T16:30:15.129Z,15.45
2022-12-14T16:32:42.164Z,14.20
2022-12-14T16:35:18.070Z,11.65
2022-12-14T16:37:45.497Z,13.25
2022-12-14T16:40:24.446Z,12.90
2022-12-14T16:42:51.137Z,10.90
2022-12-14T16:45:35.980Z,9.63
2022-12-14T16:48:08.681Z,9.85
2022-12-14T16:53:31.333Z,8.80
2022-12-14T16:56:15.092Z,8.80
2022-12-14T16:58:52.392Z,9.68
2022-12-14T17:01:19.871Z,11.35
2022-12-14T17:04:03.708Z,10.55
2022-12-14T17:06:40.101Z,7.55
2022-12-14T17:09:20.012Z,8.27
2022-12-14T17:11:48.065Z,10.40
2022-12-14T17:14:15.349Z,10.38
2022-12-14T17:16:42.660Z,12.63
2022-12-14T17:19:17.824Z,9.63
2022-12-14T17:21:44.534Z,8.55
2022-12-14T17:24:19.702Z,8.80
2022-12-14T17:26:46.919Z,12.88
2022-12-14T17:29:20.772Z,11.63
2022-12-14T17:31:50.128Z,10.77
2022-12-14T17:34:17.844Z,9.43
2022-12-14T17:36:45.013Z,9.40
2022-12-14T17:39:11.655Z,11.43
2022-12-14T17:41:41.293Z,11.05
2022-12-14T17:44:13.928Z,10.60
2022-12-14T17:46:40.685Z,12.43
2022-12-14T17:49:07.375Z,12.38
2022-12-14T17:51:41.685Z,11.63
2022-12-14T17:54:19.411Z,13.52
2022-12-14T17:56:46.456Z,11.70
2022-12-14T17:59:13.307Z,10.27
2022-12-14T18:01:41.660Z,10.57
2022-12-14T18:04:08.592Z,10.45
2022-12-14T18:06:35.629Z,10.82
2022-12-14T18:09:02.960Z,12.38
2022-12-14T18:11:29.810Z,11.73
2022-12-14T18:13:56.380Z,8.52
2022-12-14T18:16:24.161Z,9.88
2022-12-14T18:18:53.990Z,9.77
2022-12-14T18:21:22.577Z,9.07
2022-12-14T18:23:50.310Z,10.32
2022-12-14T18:26:20.619Z,9.02
2022-12-14T18:28:52.607Z,8.68
2022-12-14T18:31:38.210Z,10.48
2022-12-14T18:34:05.260Z,9.70
2022-12-14T18:36:32.046Z,9.45
2022-12-14T18:38:58.765Z,9.48
2022-12-14T18:41:27.418Z,9.60
2022-12-14T18:43:55.694Z,10.57
2022-12-14T18:46:22.725Z,8.38
2022-12-14T18:48:49.682Z,9.77
2022-12-14T18:51:26.653Z,8.50
2022-12-14T18:53:55.290Z,7.97
2022-12-14T18:56:23.339Z,6.22
2022-12-14T18:58:50.479Z,7.65
2022-12-14T19:01:21.088Z,6.90
2022-12-14T19:03:48.392Z,10.90
2022-12-14T19:09:08.232Z,9.25
2022-12-14T19:11:44.351Z,7.43
2022-12-14T19:14:11.407Z,9.60
2022-12-14T19:16:38.226Z,10.07
2022-12-14T19:19:04.922Z,9.32
2022-12-14T19:21:31.694Z,11.88
2022-12-14T19:24:01.676Z,13.55
2022-12-14T19:26:29.167Z,11.25
2022-12-14T19:28:56.160Z,9.65
2022-12-14T19:31:23.033Z,10.57
2022-12-14T19:33:49.939Z,9.48
2022-12-14T19:36:16.536Z,8.80
2022-12-14T19:38:43.084Z,11.65
2022-12-14T19:41:13.525Z,8.50
2022-12-14T19:43:40.110Z,10.18
2022-12-14T19:46:08.791Z,10.40
2022-12-14T19:48:35.826Z,8.00
2022-12-14T19:51:10.608Z,8.98
2022-12-14T19:53:38.266Z,8.63
2022-12-14T19:56:05.559Z,7.70
2022-12-14T19:58:32.415Z,7.78
2022-12-14T20:00:59.325Z,8.50
2022-12-14T20:03:26.033Z,9.50
2022-12-14T20:06:00.874Z,9.52
2022-12-14T20:08:29.293Z,7.53
2022-12-14T20:10:56.544Z,7.35
2022-12-14T20:13:25.389Z,8.18
2022-12-14T20:15:55.399Z,7.38
2022-12-14T20:18:22.626Z,8.70
2022-12-14T20:20:50.257Z,6.95
2022-12-14T20:23:18.273Z,7.53
2022-12-14T20:25:44.912Z,8.73
2022-12-14T20:28:11.802Z,8.85
2022-12-14T20:30:47.825Z,6.93
2022-12-14T20:33:14.511Z,7.75
2022-12-14T20:35:41.080Z,8.65
2022-12-14T20:38:07.790Z,11.00
2022-12-14T20:40:38.648Z,7.50
2022-12-14T20:43:07.180Z,7.88
2022-12-14T20:45:41.556Z,5.82
2022-12-14T20:48:08.724Z,7.95
2022-12-14T20:50:37.621Z,8.68
2022-12-14T20:53:04.640Z,6.70
2022-12-14T20:55:31.330Z,8.73
2022-12-14T20:57:57.974Z,7.57
2022-12-14T21:00:25.025Z,8.68
2022-12-14T21:02:51.837Z,6.95
2022-12-14T21:05:18.700Z,7.20
2022-12-14T21:07:45.244Z,6.13
2022-12-14T21:10:11.882Z,6.32
2022-12-14T21:12:38.462Z,9.38
2022-12-14T21:15:05.554Z,6.22
2022-12-14T21:17:33.706Z,8.55
2022-12-14T21:20:00.785Z,8.30
2022-12-14T21:22:30.106Z,7.65
2022-12-14T21:25:05.652Z,8.70
2022-12-14T21:27:35.119Z,7.93
2022-12-14T21:30:02.023Z,9.65
2022-12-14T21:32:28.659Z,9.23
2022-12-14T21:34:55.405Z,9.15
2022-12-14T21:37:22.222Z,8.77
2022-12-14T21:39:54.966Z,9.38
2022-12-14T21:42:23.646Z,10.27
2022-12-14T21:44:52.071Z,7.32
2022-12-14T21:47:24.978Z,11.40
2022-12-14T21:49:51.862Z,9.32
2022-12-14T21:52:21.561Z,11.30
2022-12-14T21:54:48.318Z,10.57
2022-12-14T21:57:41.564Z,7.88
2022-12-14T22:00:09.895Z,10.82
2022-12-14T22:02:39.614Z,9.17
2022-12-14T22:05:06.793Z,9.65
2022-12-14T22:07:34.024Z,7.68
2022-12-14T22:10:01.118Z,8.23
2022-12-14T22:12:28.022Z,5.80
2022-12-14T22:14:54.626Z,8.07
2022-12-14T22:17:21.279Z,7.50
2022-12-14T22:19:48.936Z,7.10
2022-12-14T22:22:16.457Z,6.05
2022-12-14T22:24:43.344Z,6.18
2022-12-14T22:27:11.586Z,7.00
2022-12-14T22:29:38.198Z,6.18
2022-12-14T22:32:05.384Z,6.53
2022-12-14T22:34:31.997Z,5.82
2022-12-14T22:36:58.567Z,8.10
2022-12-14T22:39:25.141Z,7.88
2022-12-14T22:41:51.758Z,6.90
2022-12-14T22:44:18.329Z,6.95
2022-12-14T22:46:44.946Z,8.43
2022-12-14T22:49:16.300Z,7.10
2022-12-14T22:51:43.074Z,6.55
2022-12-14T22:54:11.408Z,6.68
2022-12-14T22:56:42.579Z,5.60
2022-12-14T22:59:20.403Z,6.78
2022-12-14T23:01:49.868Z,4.82
2022-12-14T23:04:17.463Z,7.75
2022-12-14T23:06:45.121Z,4.95
2022-12-14T23:09:30.535Z,4.70
2022-12-14T23:12:21.241Z,6.57
2022-12-14T23:15:07.087Z,6.00
2022-12-14T23:17:52.818Z,5.25
2022-12-14T23:20:38.009Z,7.22
2022-12-14T23:23:27.504Z,5.95
2022-12-14T23:26:13.103Z,6.72
2022-12-14T23:28:58.421Z,6.43
2022-12-14T23:31:43.523Z,5.93
2022-12-14T23:34:28.518Z,7.53
2022-12-14T23:37:18.192Z,7.70
2022-12-14T23:40:06.194Z,6.07
2022-12-14T23:42:51.552Z,4.45
2022-12-14T23:45:36.901Z,7.93
2022-12-14T23:48:22.017Z,8.30
2022-12-14T23:51:06.930Z,8.15
2022-12-14T23:53:52.092Z,4.68
2022-12-14T23:56:37.445Z,5.47
2022-12-14T23:59:28.012Z,8.00
